Time;durP1;ratioP1;P1;durP2;ratioP2;P2;SDS_P1;SDS_P2;PMS_P1;PMS_P2;Temp;Humidity;BMP_temperature;BMP_pressure;BME280_temperature;BME280_humidity;BME280_pressure;Samples;Min_cycle;Max_cycle;Signal;HPM_P1;HPM_P2
2021/08/08 00:01:13;;;;;;;2.00;1.90;;;22.30;37.70;;;;;;5053262;28;20630;-69
2021/08/08 00:03:39;;;;;;;2.20;1.97;;;22.30;37.70;;;;;;5053710;28;20175;-70
2021/08/08 00:06:04;;;;;;;1.87;1.77;;;22.30;37.60;;;;;;5053812;28;20188;-70
2021/08/08 00:08:31;;;;;;;2.33;2.13;;;22.30;37.70;;;;;;5053860;28;20415;-69
2021/08/08 00:10:57;;;;;;;2.00;1.77;;;22.30;37.70;;;;;;5053944;28;20178;-69
2021/08/08 00:13:23;;;;;;;3.00;1.73;;;22.30;37.70;;;;;;5053788;28;20407;-70
2021/08/08 00:15:49;;;;;;;2.17;1.80;;;22.30;37.70;;;;;;5053481;28;20708;-70
2021/08/08 00:18:15;;;;;;;2.10;1.60;;;22.30;37.80;;;;;;5035864;28;20421;-70
2021/08/08 00:20:41;;;;;;;2.40;1.77;;;22.30;37.80;;;;;;5053636;28;20410;-70
2021/08/08 00:23:06;;;;;;;1.90;1.80;;;22.30;37.90;;;;;;5053728;28;20255;-70
2021/08/08 00:25:32;;;;;;;2.07;1.97;;;22.30;37.90;;;;;;5053414;28;20203;-70
2021/08/08 00:27:58;;;;;;;1.60;1.50;;;22.30;37.90;;;;;;5053654;28;20668;-70
2021/08/08 00:30:25;;;;;;;2.03;1.90;;;22.30;37.90;;;;;;5053411;28;20175;-70
2021/08/08 00:32:50;;;;;;;2.60;1.73;;;22.30;37.90;;;;;;5053441;28;20417;-70
2021/08/08 00:35:16;;;;;;;2.20;2.10;;;22.30;37.90;;;;;;5052975;28;20491;-70
2021/08/08 00:37:44;;;;;;;2.40;2.30;;;22.30;37.90;;;;;;5053537;28;20179;-70
2021/08/08 00:40:12;;;;;;;1.57;1.47;;;22.30;37.90;;;;;;5053246;28;21123;-70
2021/08/08 00:42:38;;;;;;;1.93;1.80;;;22.30;37.90;;;;;;5053227;28;20398;-70
2021/08/08 00:45:05;;;;;;;1.60;1.50;;;22.30;37.90;;;;;;5053010;28;20412;-70
2021/08/08 00:47:30;;;;;;;1.60;1.50;;;22.30;37.90;;;;;;5053328;28;20180;-70
2021/08/08 00:49:56;;;;;;;2.10;1.90;;;22.30;38.00;;;;;;5053027;28;20984;-70
2021/08/08 00:52:22;;;;;;;2.00;1.73;;;22.30;38.00;;;;;;5053180;28;20172;-69
2021/08/08 00:54:47;;;;;;;1.60;1.50;;;22.20;38.00;;;;;;5052853;28;20196;-70
2021/08/08 00:57:13;;;;;;;2.77;2.00;;;22.30;38.00;;;;;;5052920;28;20227;-70
2021/08/08 00:59:38;;;;;;;2.57;1.63;;;22.20;37.90;;;;;;5052857;28;20549;-70
2021/08/08 01:02:05;;;;;;;2.00;1.63;;;22.30;38.80;;;;;;5052950;28;20687;-70
2021/08/08 01:04:35;;;;;;;1.70;1.60;;;22.20;37.90;;;;;;5052678;28;20684;-70
2021/08/08 01:07:09;;;;;;;2.33;1.73;;;22.20;38.00;;;;;;5052719;28;20433;-70
2021/08/08 01:09:39;;;;;;;4.40;2.20;;;22.20;38.00;;;;;;5052682;28;20395;-69
2021/08/08 01:12:04;;;;;;;1.83;1.73;;;22.30;38.10;;;;;;5052762;28;20935;-69
2021/08/08 01:14:33;;;;;;;1.80;1.70;;;22.20;38.10;;;;;;5052203;28;20438;-69
2021/08/08 01:17:04;;;;;;;1.77;1.60;;;22.20;38.00;;;;;;5052387;28;20430;-68
2021/08/08 01:19:34;;;;;;;2.00;1.80;;;22.20;38.00;;;;;;5052326;28;20806;-69
2021/08/08 01:22:01;;;;;;;2.40;1.87;;;22.20;38.00;;;;;;5052538;28;20411;-69
2021/08/08 01:27:51;;;;;;;1.50;1.40;;;22.20;38.10;;;;;;5052708;28;20386;-70
2021/08/08 01:30:17;;;;;;;4.60;2.33;;;22.20;38.10;;;;;;5052259;28;20830;-70
2021/08/08 01:32:43;;;;;;;2.00;1.80;;;22.20;38.10;;;;;;5052255;28;20402;-70
2021/08/08 01:35:09;;;;;;;2.40;2.07;;;22.20;38.10;;;;;;5051882;28;20665;-70
2021/08/08 01:37:35;;;;;;;2.10;2.00;;;22.20;38.10;;;;;;5052473;28;20498;-70
2021/08/08 01:40:18;;;;;;;1.93;1.70;;;22.20;38.10;;;;;;5052178;28;20409;-69
2021/08/08 01:42:44;;;;;;;2.30;1.93;;;22.20;38.00;;;;;;5052217;28;20412;-69
2021/08/08 01:45:14;;;;;;;3.30;1.90;;;22.20;38.00;;;;;;5051833;28;20441;-69
2021/08/08 01:47:46;;;;;;;1.93;1.83;;;22.20;38.00;;;;;;5051844;28;20415;-69
2021/08/08 01:50:13;;;;;;;3.10;1.70;;;22.20;38.00;;;;;;5051835;28;20444;-69
2021/08/08 01:52:38;;;;;;;1.73;1.60;;;22.20;38.00;;;;;;5034148;28;20498;-69
2021/08/08 01:55:04;;;;;;;2.47;1.70;;;22.20;38.00;;;;;;5051617;28;20545;-70
2021/08/08 01:57:32;;;;;;;1.50;1.40;;;22.20;38.00;;;;;;5051774;28;20694;-70
2021/08/08 01:59:57;;;;;;;2.40;2.20;;;22.20;37.90;;;;;;5051908;28;20567;-70
2021/08/08 02:02:23;;;;;;;1.70;1.60;;;22.20;37.90;;;;;;5051774;28;20461;-70
2021/08/08 02:04:49;;;;;;;1.93;1.57;;;22.20;37.90;;;;;;5051555;28;20537;-70
2021/08/08 02:07:16;;;;;;;1.90;1.80;;;22.20;37.90;;;;;;5051822;28;20195;-69
2021/08/08 02:09:42;;;;;;;1.60;1.50;;;22.20;38.00;;;;;;5051884;28;20183;-70
2021/08/08 02:12:08;;;;;;;1.70;1.60;;;22.20;37.90;;;;;;5051673;28;20417;-70
2021/08/08 02:14:34;;;;;;;2.97;2.27;;;22.20;37.90;;;;;;5051524;28;20415;-68
2021/08/08 02:17:00;;;;;;;1.83;1.73;;;22.20;37.90;;;;;;5051302;28;20200;-69
2021/08/08 02:19:25;;;;;;;2.27;1.83;;;22.20;38.00;;;;;;5051503;28;20414;-69
2021/08/08 02:21:51;;;;;;;1.47;1.37;;;22.20;38.00;;;;;;5051671;28;20411;-69
2021/08/08 02:24:17;;;;;;;1.70;1.60;;;22.20;38.00;;;;;;5051589;28;20172;-70
2021/08/08 02:26:43;;;;;;;1.60;1.50;;;22.20;38.10;;;;;;5055553;28;20431;-70
2021/08/08 02:29:08;;;;;;;1.60;1.50;;;22.20;38.00;;;;;;5055782;28;20179;-70
2021/08/08 02:31:36;;;;;;;1.37;1.37;;;22.20;38.00;;;;;;5055724;28;20208;-70
2021/08/08 02:34:02;;;;;;;1.80;1.70;;;22.20;38.00;;;;;;5055627;28;20182;-70
2021/08/08 02:36:27;;;;;;;1.93;1.73;;;22.20;38.10;;;;;;5055323;28;20548;-70
2021/08/08 02:38:52;;;;;;;1.60;1.50;;;22.10;37.90;;;;;;5055517;28;20172;-70
2021/08/08 02:41:18;;;;;;;1.83;1.73;;;22.10;37.90;;;;;;5055610;28;20207;-69
2021/08/08 02:43:43;;;;;;;2.30;1.90;;;22.10;37.90;;;;;;5055460;28;20164;-69
2021/08/08 02:46:09;;;;;;;2.03;1.50;;;22.10;37.90;;;;;;5055178;28;20227;-69
2021/08/08 02:48:35;;;;;;;2.20;2.10;;;22.10;37.90;;;;;;5055455;28;20176;-69
2021/08/08 02:51:01;;;;;;;1.77;1.60;;;22.10;37.90;;;;;;5055349;28;20572;-68
2021/08/08 02:53:27;;;;;;;1.63;1.37;;;22.10;38.00;;;;;;5055373;28;20418;-69
2021/08/08 02:55:52;;;;;;;1.70;1.60;;;22.10;38.00;;;;;;5054907;28;20486;-69
2021/08/08 02:58:18;;;;;;;1.70;1.60;;;22.10;38.00;;;;;;5055145;28;20188;-69
2021/08/08 03:00:43;;;;;;;2.00;1.73;;;22.10;38.00;;;;;;5055057;28;20545;-69
2021/08/08 03:03:09;;;;;;;1.60;1.50;;;22.10;38.00;;;;;;5055221;28;20164;-69
2021/08/08 03:05:34;;;;;;;5.10;2.30;;;22.10;38.00;;;;;;5054757;28;20196;-69
2021/08/08 03:08:00;;;;;;;1.60;1.50;;;22.10;38.70;;;;;;5055135;28;20255;-69
2021/08/08 03:10:25;;;;;;;1.50;1.40;;;22.10;38.00;;;;;;5037086;28;20548;-69
2021/08/08 03:12:51;;;;;;;1.63;1.53;;;22.10;37.90;;;;;;5054959;28;20199;-69
2021/08/08 03:15:16;;;;;;;2.70;1.60;;;22.10;37.90;;;;;;5054360;28;20721;-70
2021/08/08 03:17:42;;;;;;;1.63;1.40;;;22.10;37.90;;;;;;5054729;28;20179;-70
2021/08/08 03:20:08;;;;;;;1.77;1.67;;;22.10;38.00;;;;;;5054784;28;20172;-70
2021/08/08 03:22:33;;;;;;;1.70;1.60;;;22.10;37.90;;;;;;5054845;28;20196;-70
2021/08/08 03:24:59;;;;;;;1.63;1.53;;;22.10;37.90;;;;;;5054500;28;20503;-69
2021/08/08 03:27:24;;;;;;;1.67;1.57;;;22.10;37.90;;;;;;5054688;28;20241;-70
2021/08/08 03:29:50;;;;;;;1.70;1.60;;;22.10;37.90;;;;;;5054511;28;20233;-70
2021/08/08 03:32:15;;;;;;;1.60;1.50;;;22.10;37.90;;;;;;5054654;28;20583;-70
2021/08/08 03:34:41;;;;;;;1.73;1.50;;;22.10;38.50;;;;;;5054152;28;20222;-70
2021/08/08 03:37:06;;;;;;;3.60;1.70;;;22.10;37.90;;;;;;5053165;28;20187;-69
2021/08/08 03:39:32;;;;;;;2.83;1.83;;;22.10;37.90;;;;;;5054478;28;20218;-70
2021/08/08 03:41:57;;;;;;;1.43;1.33;;;22.10;37.90;;;;;;5054437;28;20255;-70
2021/08/08 03:44:23;;;;;;;1.80;1.70;;;22.10;37.90;;;;;;5054301;28;20195;-70
2021/08/08 03:46:49;;;;;;;1.60;1.50;;;22.10;37.90;;;;;;5054094;28;20203;-70
2021/08/08 03:49:14;;;;;;;1.80;1.40;;;22.10;37.90;;;;;;5054330;28;20202;-70
2021/08/08 03:51:40;;;;;;;1.73;1.63;;;22.10;37.90;;;;;;5054307;28;20677;-70
2021/08/08 03:54:06;;;;;;;1.93;1.83;;;22.10;37.90;;;;;;5054087;28;20666;-70
2021/08/08 03:56:34;;;;;;;2.03;1.60;;;22.10;38.00;;;;;;5053730;28;20238;-68
2021/08/08 03:59:00;;;;;;;1.47;1.40;;;22.10;37.90;;;;;;5053761;28;20557;-69
2021/08/08 04:01:25;;;;;;;1.30;1.20;;;22.10;37.90;;;;;;5054113;28;20418;-68
2021/08/08 04:03:51;;;;;;;1.97;1.77;;;22.10;37.90;;;;;;5053947;28;20168;-69
2021/08/08 04:06:16;;;;;;;1.70;1.60;;;22.10;38.00;;;;;;5053933;28;20196;-69
2021/08/08 04:08:42;;;;;;;4.93;2.10;;;22.10;38.00;;;;;;5053828;28;20181;-69
2021/08/08 04:11:11;;;;;;;1.97;1.40;;;22.10;38.00;;;;;;5053827;28;20182;-70
2021/08/08 04:13:37;;;;;;;2.17;1.70;;;22.10;38.00;;;;;;5053822;28;20173;-69
2021/08/08 04:16:03;;;;;;;2.33;2.13;;;22.10;38.00;;;;;;5053461;28;20469;-69
2021/08/08 04:18:32;;;;;;;1.80;1.20;;;22.10;38.00;;;;;;5053964;28;20234;-70
2021/08/08 04:20:57;;;;;;;1.40;1.30;;;22.10;38.00;;;;;;5053539;28;20701;-69
2021/08/08 04:23:23;;;;;;;1.73;1.63;;;22.10;38.00;;;;;;5053769;28;20490;-69
2021/08/08 04:25:48;;;;;;;1.60;1.50;;;22.10;38.70;;;;;;5035472;28;20253;-70
2021/08/08 04:28:14;;;;;;;1.60;1.50;;;22.10;38.00;;;;;;5053498;28;20176;-69
2021/08/08 04:30:40;;;;;;;1.50;1.40;;;22.10;38.00;;;;;;5053602;28;20180;-69
2021/08/08 04:33:05;;;;;;;1.77;1.67;;;22.10;38.00;;;;;;5053529;28;20594;-69
2021/08/08 04:35:32;;;;;;;1.57;1.47;;;22.10;38.00;;;;;;5053043;28;20210;-69
2021/08/08 04:37:58;;;;;;;1.60;1.50;;;22.10;37.90;;;;;;5053491;28;20172;-70
2021/08/08 04:40:24;;;;;;;1.23;1.07;;;22.00;37.90;;;;;;5053265;28;20433;-70
2021/08/08 04:42:50;;;;;;;1.50;1.40;;;22.00;37.80;;;;;;5053216;28;20807;-70
2021/08/08 04:45:15;;;;;;;1.53;1.47;;;22.10;37.90;;;;;;5035020;28;20422;-70
2021/08/08 04:47:41;;;;;;;1.93;1.70;;;22.00;37.70;;;;;;5052807;28;20649;-69
2021/08/08 04:50:07;;;;;;;1.33;1.33;;;22.00;37.80;;;;;;5053144;28;20205;-69
2021/08/08 04:52:37;;;;;;;1.70;1.60;;;22.00;37.80;;;;;;5053202;28;20634;-69
2021/08/08 04:55:03;;;;;;;2.93;1.90;;;22.00;37.80;;;;;;5052726;28;20454;-69
2021/08/08 04:57:29;;;;;;;2.30;2.03;;;22.00;37.80;;;;;;5052872;28;20576;-69
2021/08/08 04:59:54;;;;;;;2.07;1.93;;;22.00;37.90;;;;;;5052912;28;20502;-68
2021/08/08 05:02:20;;;;;;;1.67;1.57;;;22.00;37.90;;;;;;5052992;28;20326;-68
2021/08/08 05:04:47;;;;;;;1.70;1.60;;;22.00;38.00;;;;;;5041265;28;20606;-68
2021/08/08 05:07:12;;;;;;;6.20;1.93;;;22.00;38.10;;;;;;5030871;28;20439;-68
2021/08/08 05:09:38;;;;;;;2.10;2.00;;;22.00;38.00;;;;;;5032841;28;20766;-68
2021/08/08 05:12:04;;;;;;;1.70;1.60;;;22.00;38.20;;;;;;5032777;28;20183;-68
2021/08/08 05:14:29;;;;;;;3.03;2.03;;;22.10;38.50;;;;;;5032616;28;20187;-68
2021/08/08 05:16:55;;;;;;;1.93;1.73;;;22.00;38.60;;;;;;5032375;28;20427;-68
2021/08/08 05:19:21;;;;;;;2.23;1.97;;;22.10;38.90;;;;;;5032499;28;20184;-68
2021/08/08 05:21:47;;;;;;;1.80;1.80;;;22.00;38.80;;;;;;5013752;28;20946;-68
2021/08/08 05:24:12;;;;;;;2.67;1.57;;;22.10;38.90;;;;;;5029997;28;20631;-69
2021/08/08 05:26:38;;;;;;;1.87;1.67;;;22.00;38.80;;;;;;5028214;28;20196;-68
2021/08/08 05:29:04;;;;;;;2.70;1.80;;;22.00;38.90;;;;;;5032415;28;20196;-68
2021/08/08 05:31:29;;;;;;;2.77;1.70;;;22.00;38.90;;;;;;5032379;28;20608;-68
2021/08/08 05:33:55;;;;;;;2.83;1.53;;;22.00;38.80;;;;;;5032320;28;20515;-68
2021/08/08 05:36:20;;;;;;;2.73;1.70;;;22.00;38.60;;;;;;5014335;28;20274;-68
2021/08/08 05:38:46;;;;;;;1.67;1.53;;;22.00;38.10;;;;;;5032262;28;20176;-68
2021/08/08 05:41:12;;;;;;;1.70;1.53;;;22.00;37.70;;;;;;5032113;28;20632;-68
2021/08/08 05:43:38;;;;;;;3.00;1.87;;;22.00;37.40;;;;;;5050459;28;20174;-66
2021/08/08 05:46:03;;;;;;;2.07;1.50;;;22.00;37.20;;;;;;5051512;28;20662;-68
2021/08/08 05:48:29;;;;;;;2.00;1.80;;;22.00;37.00;;;;;;5051490;28;20410;-67
2021/08/08 05:50:54;;;;;;;1.70;1.60;;;22.00;37.00;;;;;;5051988;28;20176;-67
2021/08/08 05:53:20;;;;;;;2.23;1.67;;;22.00;36.90;;;;;;5051950;28;20167;-67
2021/08/08 05:55:48;;;;;;;1.53;1.43;;;22.00;36.90;;;;;;5051418;28;20215;-68
2021/08/08 05:58:14;;;;;;;1.43;1.27;;;22.00;36.50;;;;;;5051745;28;20180;-68
2021/08/08 06:00:41;;;;;;;1.50;1.40;;;22.00;35.80;;;;;;5051335;28;20406;-68
2021/08/08 06:03:10;;;;;;;2.20;1.47;;;21.90;35.40;;;;;;5051910;28;20460;-68
2021/08/08 06:05:37;;;;;;;1.00;1.00;;;21.80;35.10;;;;;;5051589;28;20426;-68
2021/08/08 06:08:03;;;;;;;2.43;1.57;;;21.80;35.30;;;;;;5051653;28;20410;-68
2021/08/08 06:10:29;;;;;;;3.33;1.57;;;21.70;35.20;;;;;;5051749;28;20410;-68
2021/08/08 06:12:54;;;;;;;1.53;1.43;;;21.70;35.40;;;;;;5051740;28;20406;-68
2021/08/08 06:15:20;;;;;;;1.80;1.70;;;21.60;35.40;;;;;;5051346;28;20697;-68
2021/08/08 06:17:45;;;;;;;1.60;1.50;;;21.60;35.50;;;;;;5050557;28;20634;-68
2021/08/08 06:20:11;;;;;;;1.40;1.30;;;21.50;35.50;;;;;;5049791;28;20194;-68
2021/08/08 06:22:37;;;;;;;1.40;1.30;;;21.50;35.70;;;;;;5051632;28;20673;-68
2021/08/08 06:25:03;;;;;;;1.87;1.10;;;21.40;35.40;;;;;;5051325;28;20267;-67
2021/08/08 06:27:28;;;;;;;2.40;1.50;;;21.50;35.50;;;;;;5051547;28;20313;-67
2021/08/08 06:29:54;;;;;;;1.67;1.57;;;21.50;35.50;;;;;;5051693;28;20490;-67
2021/08/08 06:32:20;;;;;;;3.90;1.23;;;21.40;35.40;;;;;;5051650;28;20197;-67
2021/08/08 06:34:45;;;;;;;1.30;1.20;;;21.40;35.50;;;;;;5051255;28;20646;-67
2021/08/08 06:37:11;;;;;;;1.57;1.20;;;21.40;36.20;;;;;;5051426;28;20199;-68
2021/08/08 06:39:36;;;;;;;1.70;1.60;;;21.40;35.50;;;;;;5051566;28;20194;-67
2021/08/08 06:42:02;;;;;;;2.00;1.63;;;21.40;35.60;;;;;;5051565;28;20632;-67
2021/08/08 06:44:28;;;;;;;1.63;1.53;;;21.40;35.40;;;;;;5051492;28;20642;-67
2021/08/08 06:46:54;;;;;;;1.67;1.57;;;21.40;35.40;;;;;;5051325;28;20223;-68
2021/08/08 06:49:20;;;;;;;2.03;1.70;;;21.40;35.40;;;;;;5051385;28;20924;-68
2021/08/08 06:51:45;;;;;;;1.47;1.37;;;21.40;35.60;;;;;;5051437;28;20501;-68
2021/08/08 06:54:12;;;;;;;1.70;1.47;;;21.40;35.40;;;;;;5051296;28;20603;-68
2021/08/08 06:56:38;;;;;;;1.50;1.40;;;21.40;35.40;;;;;;5051081;28;20216;-68
2021/08/08 06:59:03;;;;;;;2.97;1.93;;;21.40;35.50;;;;;;5051059;28;20437;-68
2021/08/08 07:01:29;;;;;;;3.43;1.43;;;21.40;35.40;;;;;;5051268;28;20411;-68
2021/08/08 07:03:54;;;;;;;1.90;1.80;;;21.50;36.30;;;;;;5051294;28;20219;-68
2021/08/08 07:06:20;;;;;;;3.70;1.70;;;21.50;35.60;;;;;;5033195;28;20617;-68
2021/08/08 07:08:45;;;;;;;1.73;1.67;;;21.50;35.50;;;;;;5051080;28;20305;-68
2021/08/08 07:11:11;;;;;;;1.80;1.70;;;21.50;35.20;;;;;;5052627;28;20222;-68
2021/08/08 07:13:41;;;;;;;3.27;1.50;;;21.50;35.00;;;;;;5054947;28;20168;-68
2021/08/08 07:16:07;;;;;;;2.20;1.60;;;21.50;34.70;;;;;;5054643;28;20211;-67
2021/08/08 07:18:32;;;;;;;1.87;1.77;;;21.50;34.70;;;;;;5054692;28;20403;-67
2021/08/08 07:20:58;;;;;;;2.60;1.60;;;21.60;34.90;;;;;;5054730;28;20406;-67
2021/08/08 07:23:23;;;;;;;2.07;1.53;;;21.60;35.10;;;;;;5052061;28;20175;-67
2021/08/08 07:25:49;;;;;;;1.80;1.30;;;21.70;35.50;;;;;;5051861;28;20196;-68
2021/08/08 07:28:14;;;;;;;1.50;1.40;;;21.70;35.70;;;;;;5052239;28;20697;-68
2021/08/08 07:30:40;;;;;;;1.87;1.70;;;21.70;35.90;;;;;;5052261;28;20361;-67
2021/08/08 07:33:05;;;;;;;1.90;1.60;;;21.70;35.90;;;;;;5051810;28;20658;-67
2021/08/08 07:35:31;;;;;;;1.70;1.60;;;21.80;36.70;;;;;;5027293;28;20205;-67
2021/08/08 07:37:57;;;;;;;6.40;2.23;;;21.80;36.10;;;;;;5030900;28;20216;-67
2021/08/08 07:40:22;;;;;;;1.80;1.70;;;21.80;35.90;;;;;;5031702;28;20226;-68
2021/08/08 07:42:49;;;;;;;2.90;1.93;;;21.80;35.80;;;;;;5031112;28;20697;-67
2021/08/08 07:45:15;;;;;;;3.03;1.83;;;21.80;35.70;;;;;;5030208;28;20173;-67
2021/08/08 07:47:41;;;;;;;1.90;1.60;;;21.80;35.70;;;;;;5030701;28;20424;-67
2021/08/08 07:50:07;;;;;;;3.47;1.90;;;21.80;35.70;;;;;;5031784;28;20917;-67
2021/08/08 07:52:35;;;;;;;2.50;2.30;;;21.90;35.70;;;;;;5031819;28;20177;-67
2021/08/08 07:55:01;;;;;;;3.80;2.03;;;21.90;35.80;;;;;;5031813;28;20871;-67
2021/08/08 07:57:26;;;;;;;2.30;2.10;;;21.90;35.70;;;;;;5034082;28;20431;-68
2021/08/08 07:59:52;;;;;;;3.13;1.97;;;21.90;35.70;;;;;;5034144;28;20176;-67
2021/08/08 08:02:17;;;;;;;4.37;2.13;;;21.90;35.70;;;;;;5034064;28;20173;-69
2021/08/08 08:04:45;;;;;;;1.90;1.80;;;21.90;35.70;;;;;;5033728;28;20642;-67
2021/08/08 08:07:11;;;;;;;4.43;2.10;;;21.90;35.70;;;;;;5034099;28;20207;-67
2021/08/08 08:09:36;;;;;;;6.03;2.53;;;21.90;35.70;;;;;;5033884;28;20403;-67
2021/08/08 08:12:02;;;;;;;3.30;2.03;;;22.00;35.70;;;;;;5034108;28;20173;-67
2021/08/08 08:14:28;;;;;;;3.00;2.30;;;22.00;35.70;;;;;;5033802;28;20192;-67
2021/08/08 08:16:53;;;;;;;2.67;2.30;;;22.00;35.60;;;;;;5033614;28;20201;-68
2021/08/08 08:19:19;;;;;;;3.67;2.40;;;22.00;35.50;;;;;;5033684;28;20183;-68
2021/08/08 08:21:44;;;;;;;2.90;2.50;;;22.00;35.50;;;;;;5033667;28;20175;-67
2021/08/08 08:24:10;;;;;;;1.97;1.83;;;22.00;35.50;;;;;;5032247;28;20165;-67
2021/08/08 08:26:36;;;;;;;3.67;2.90;;;22.00;35.50;;;;;;5032955;28;20201;-68
2021/08/08 08:29:02;;;;;;;3.10;2.00;;;22.00;35.70;;;;;;5033560;28;20419;-68
2021/08/08 08:31:27;;;;;;;2.53;2.20;;;22.00;35.60;;;;;;5033872;28;20177;-68
2021/08/08 08:33:53;;;;;;;3.73;2.63;;;22.00;35.70;;;;;;5033357;28;20239;-68
2021/08/08 08:36:18;;;;;;;4.60;2.67;;;22.00;35.70;;;;;;5032054;28;20248;-68
2021/08/08 08:38:44;;;;;;;3.00;2.30;;;22.00;35.70;;;;;;5033331;28;20184;-68
2021/08/08 08:41:13;;;;;;;2.50;2.30;;;22.00;35.70;;;;;;5033347;28;20173;-68
2021/08/08 08:43:39;;;;;;;2.80;2.33;;;22.00;35.70;;;;;;5033298;28;20173;-68
2021/08/08 08:46:05;;;;;;;3.67;2.43;;;22.00;35.60;;;;;;5032823;28;20441;-67
2021/08/08 08:48:33;;;;;;;2.20;2.10;;;22.10;35.70;;;;;;5033098;28;20416;-68
2021/08/08 08:51:00;;;;;;;2.80;2.57;;;22.00;35.50;;;;;;5033311;28;20636;-68
2021/08/08 08:53:25;;;;;;;3.40;2.57;;;22.00;35.50;;;;;;5033049;28;20415;-68
2021/08/08 08:55:51;;;;;;;2.40;2.20;;;22.00;35.50;;;;;;5032826;28;20470;-68
2021/08/08 08:58:17;;;;;;;2.40;2.17;;;22.00;35.50;;;;;;5032850;28;20184;-68
2021/08/08 09:00:43;;;;;;;3.07;2.67;;;22.00;35.50;;;;;;5032937;28;20204;-68
2021/08/08 09:03:09;;;;;;;3.70;2.27;;;22.00;35.40;;;;;;5032702;28;20490;-68
2021/08/08 09:05:35;;;;;;;3.83;2.40;;;22.00;35.40;;;;;;5032468;28;20254;-69
2021/08/08 09:08:00;;;;;;;1.83;1.73;;;22.00;35.40;;;;;;5032814;28;20822;-68
2021/08/08 09:10:26;;;;;;;2.87;2.60;;;22.00;35.40;;;;;;5031666;28;20200;-68
2021/08/08 09:12:59;;;;;;;2.90;2.30;;;22.00;35.30;;;;;;5030768;28;20204;-68
2021/08/08 09:15:39;;;;;;;3.47;2.17;;;22.00;35.30;;;;;;5031931;28;20210;-68
2021/08/08 09:18:21;;;;;;;2.60;2.50;;;22.10;35.40;;;;;;5032374;28;20465;-68
2021/08/08 09:20:48;;;;;;;2.70;2.40;;;22.00;35.30;;;;;;5031180;28;20439;-68
2021/08/08 09:23:15;;;;;;;2.40;2.03;;;22.00;35.30;;;;;;5032569;28;20426;-68
2021/08/08 09:25:56;;;;;;;3.67;2.20;;;22.00;35.10;;;;;;5032165;28;20431;-68
2021/08/08 09:28:28;;;;;;;2.80;2.60;;;22.10;35.10;;;;;;5032283;28;20412;-68
2021/08/08 09:30:55;;;;;;;2.23;2.00;;;22.10;35.00;;;;;;5032313;28;20477;-68
2021/08/08 09:33:20;;;;;;;3.90;2.50;;;22.10;35.10;;;;;;5032545;28;20415;-66
2021/08/08 09:35:51;;;;;;;2.73;2.40;;;22.10;35.00;;;;;;5032024;28;20520;-68
2021/08/08 09:38:18;;;;;;;2.90;2.27;;;22.20;35.10;;;;;;5031635;28;20646;-68
2021/08/08 09:40:54;;;;;;;4.60;2.20;;;22.20;35.00;;;;;;5032096;28;20912;-68
2021/08/08 09:43:25;;;;;;;3.73;2.00;;;22.20;34.90;;;;;;5032365;28;20802;-68
2021/08/08 09:45:50;;;;;;;2.37;2.27;;;22.20;34.90;;;;;;5031970;28;20530;-68
2021/08/08 09:48:16;;;;;;;2.83;2.17;;;22.20;34.90;;;;;;5014562;28;20540;-68
2021/08/08 09:50:43;;;;;;;5.57;2.73;;;22.20;34.90;;;;;;5031981;28;20172;-68
2021/08/08 09:53:16;;;;;;;2.27;2.17;;;22.20;34.80;;;;;;5032074;28;20579;-68
2021/08/08 09:55:42;;;;;;;2.77;2.57;;;22.20;34.80;;;;;;5031660;28;21059;-68
2021/08/08 09:58:10;;;;;;;2.70;2.27;;;22.20;34.80;;;;;;5031970;28;20518;-68
2021/08/08 10:00:38;;;;;;;2.67;2.00;;;22.20;34.80;;;;;;5031721;28;20491;-68
2021/08/08 10:03:06;;;;;;;3.37;1.93;;;22.20;34.80;;;;;;5032039;28;20902;-68
2021/08/08 10:05:38;;;;;;;3.80;1.97;;;22.20;34.70;;;;;;5031519;28;20925;-68
2021/08/08 10:08:11;;;;;;;2.20;2.10;;;22.20;34.70;;;;;;5037485;28;20403;-67
2021/08/08 10:10:39;;;;;;;2.00;1.90;;;22.30;34.70;;;;;;5050139;28;20410;-68
2021/08/08 10:13:07;;;;;;;2.00;1.90;;;22.30;34.60;;;;;;5051859;28;20418;-67
2021/08/08 10:15:42;;;;;;;3.43;2.17;;;22.30;34.50;;;;;;5050472;28;20885;-68
2021/08/08 10:18:09;;;;;;;3.07;2.33;;;22.30;34.40;;;;;;5051705;28;20919;-68
2021/08/08 10:20:36;;;;;;;2.53;2.30;;;22.30;34.30;;;;;;5051594;28;20813;-68
2021/08/08 10:23:03;;;;;;;2.00;1.83;;;22.30;34.20;;;;;;5051608;28;20403;-69
2021/08/08 10:25:29;;;;;;;2.17;2.07;;;22.30;34.20;;;;;;5051069;28;20442;-68
2021/08/08 10:27:56;;;;;;;2.43;2.23;;;22.30;34.20;;;;;;5051573;28;21002;-66
2021/08/08 10:30:22;;;;;;;2.50;2.40;;;22.30;34.10;;;;;;5051615;28;20422;-66
2021/08/08 10:32:48;;;;;;;2.47;2.27;;;22.30;34.10;;;;;;5051153;28;20413;-67
2021/08/08 10:35:44;;;;;;;3.20;2.97;;;22.30;34.00;;;;;;5051156;28;20210;-66
2021/08/08 10:38:10;;;;;;;4.60;2.30;;;22.30;33.90;;;;;;5051574;28;20164;-67
2021/08/08 10:40:37;;;;;;;2.20;2.00;;;22.30;34.60;;;;;;5051346;28;20924;-67
2021/08/08 10:43:05;;;;;;;3.77;2.10;;;22.30;33.90;;;;;;5051531;28;20406;-69
2021/08/08 10:45:33;;;;;;;4.53;2.10;;;22.30;33.80;;;;;;5051651;28;20430;-67
2021/08/08 10:48:02;;;;;;;2.33;2.10;;;22.30;33.60;;;;;;5055495;28;20417;-67
2021/08/08 10:50:37;;;;;;;2.53;2.00;;;22.30;33.70;;;;;;5055350;28;20410;-67
2021/08/08 10:53:02;;;;;;;2.37;1.90;;;22.40;33.80;;;;;;5055380;28;20410;-66
2021/08/08 10:55:39;;;;;;;6.10;2.87;;;22.40;33.80;;;;;;5055042;28;20476;-66
2021/08/08 10:58:14;;;;;;;4.97;3.00;;;22.40;34.00;;;;;;5055305;28;20196;-66
2021/08/08 11:00:41;;;;;;;3.47;3.17;;;22.40;33.80;;;;;;5055323;28;20498;-66
2021/08/08 11:03:15;;;;;;;4.93;3.77;;;22.40;33.80;;;;;;5055179;28;20409;-67
2021/08/08 11:05:41;;;;;;;3.53;3.23;;;22.50;33.80;;;;;;5054982;28;20426;-67
2021/08/08 11:08:08;;;;;;;4.40;3.70;;;22.50;34.00;;;;;;5055084;28;20547;-67
2021/08/08 11:10:38;;;;;;;4.50;3.90;;;22.50;33.80;;;;;;5054955;28;20457;-67
2021/08/08 11:13:14;;;;;;;4.87;3.97;;;22.50;33.70;;;;;;5054934;28;20908;-67
2021/08/08 11:15:41;;;;;;;5.07;4.57;;;22.50;33.60;;;;;;5054679;28;20515;-67
2021/08/08 11:18:06;;;;;;;4.60;4.20;;;22.50;33.60;;;;;;5054821;28;20414;-67
2021/08/08 11:20:32;;;;;;;3.97;3.67;;;22.50;33.50;;;;;;5054531;28;20767;-66
2021/08/08 11:22:59;;;;;;;3.83;3.23;;;22.50;33.40;;;;;;5054648;28;20172;-68
2021/08/08 11:25:26;;;;;;;4.13;3.77;;;22.50;33.20;;;;;;5054649;28;20180;-67
2021/08/08 11:27:55;;;;;;;4.03;3.53;;;22.50;33.20;;;;;;5054936;28;20406;-68
2021/08/08 11:30:21;;;;;;;3.23;3.00;;;22.50;33.30;;;;;;5054988;28;20876;-67
2021/08/08 11:32:49;;;;;;;3.70;3.27;;;22.50;33.30;;;;;;5054799;28;20422;-67
2021/08/08 11:35:24;;;;;;;3.00;2.73;;;22.50;33.20;;;;;;5039476;28;20455;-68
2021/08/08 11:37:50;;;;;;;3.07;2.87;;;22.50;33.10;;;;;;5014916;28;20414;-67
2021/08/08 11:40:20;;;;;;;3.27;2.40;;;22.50;33.10;;;;;;5014572;28;20413;-67
2021/08/08 11:42:47;;;;;;;3.87;2.90;;;22.50;33.00;;;;;;5014913;28;20408;-67
2021/08/08 11:45:13;;;;;;;3.50;2.90;;;22.50;33.00;;;;;;5014465;28;20447;-67
2021/08/08 11:47:39;;;;;;;3.00;2.67;;;22.50;33.20;;;;;;5014730;28;20440;-67
2021/08/08 11:50:06;;;;;;;4.30;2.67;;;22.50;33.10;;;;;;5014583;28;20173;-67
2021/08/08 11:52:32;;;;;;;2.90;2.10;;;22.50;33.20;;;;;;5014837;28;20419;-67
2021/08/08 11:55:08;;;;;;;2.53;2.30;;;22.50;33.20;;;;;;5014238;28;20416;-67
2021/08/08 11:57:34;;;;;;;2.70;2.50;;;22.50;33.20;;;;;;5013226;28;20416;-67
2021/08/08 12:00:02;;;;;;;2.90;2.67;;;22.50;33.10;;;;;;5014442;28;20415;-67
2021/08/08 12:02:29;;;;;;;2.33;1.90;;;22.50;33.10;;;;;;5014437;28;20829;-67
2021/08/08 12:04:56;;;;;;;2.17;1.93;;;22.50;33.00;;;;;;5014135;28;20443;-67
2021/08/08 12:07:24;;;;;;;2.50;2.40;;;22.50;33.10;;;;;;5014129;28;20429;-67
2021/08/08 12:09:51;;;;;;;2.30;2.10;;;22.50;33.10;;;;;;5014160;28;20400;-67
2021/08/08 12:12:17;;;;;;;2.23;2.13;;;22.50;33.10;;;;;;5014359;28;20523;-67
2021/08/08 12:14:47;;;;;;;1.67;1.57;;;22.50;33.10;;;;;;5013782;28;20499;-67
2021/08/08 12:20:39;;;;;;;1.77;1.67;;;22.50;32.80;;;;;;5014072;28;20468;-67
2021/08/08 12:23:09;;;;;;;2.17;1.97;;;22.50;32.60;;;;;;5014062;28;20412;-67
2021/08/08 12:25:35;;;;;;;1.40;1.30;;;22.50;32.00;;;;;;5013630;28;20785;-67
2021/08/08 12:28:01;;;;;;;2.17;1.97;;;22.50;32.00;;;;;;5014090;28;20499;-69
2021/08/08 12:30:27;;;;;;;1.73;1.63;;;22.50;32.10;;;;;;5013836;28;20499;-67
2021/08/08 12:33:07;;;;;;;2.07;1.60;;;22.50;32.00;;;;;;5014019;28;20236;-67
2021/08/08 12:35:41;;;;;;;1.90;1.70;;;22.50;31.70;;;;;;5013380;28;20483;-67
2021/08/08 12:38:12;;;;;;;1.73;1.63;;;22.50;31.60;;;;;;5013864;28;20880;-67
2021/08/08 12:40:55;;;;;;;1.43;1.33;;;22.50;31.50;;;;;;5013498;28;20917;-67
2021/08/08 12:43:23;;;;;;;1.53;1.43;;;22.50;31.40;;;;;;5013659;28;20432;-67
2021/08/08 12:45:50;;;;;;;2.00;1.90;;;22.50;31.30;;;;;;5013223;28;20436;-67
2021/08/08 12:48:28;;;;;;;1.70;1.60;;;22.50;31.20;;;;;;5013467;28;20422;-67
2021/08/08 12:50:53;;;;;;;1.67;1.57;;;22.50;31.20;;;;;;5013515;28;20447;-66
2021/08/08 12:53:18;;;;;;;1.73;1.63;;;22.50;31.10;;;;;;5013476;28;20452;-66